sensor_id;sensor_type;location;lat;lon;timestamp;temperature;humidity
53268;DHT22;39156;51.176;6.738;2022-08-25T00:01:34;25.10;39.00
53268;DHT22;39156;51.176;6.738;2022-08-25T00:04:05;25.00;38.90
53268;DHT22;39156;51.176;6.738;2022-08-25T00:06:34;25.00;39.10
53268;DHT22;39156;51.176;6.738;2022-08-25T00:09:00;25.00;39.10
53268;DHT22;39156;51.176;6.738;2022-08-25T00:11:30;24.90;39.10
53268;DHT22;39156;51.176;6.738;2022-08-25T00:14:00;24.90;39.30
53268;DHT22;39156;51.176;6.738;2022-08-25T00:16:29;24.90;39.30
53268;DHT22;39156;51.176;6.738;2022-08-25T00:19:03;24.80;39.30
53268;DHT22;39156;51.176;6.738;2022-08-25T00:21:30;24.80;39.50
53268;DHT22;39156;51.176;6.738;2022-08-25T00:23:57;24.80;39.50
53268;DHT22;39156;51.176;6.738;2022-08-25T00:26:23;24.70;39.50
53268;DHT22;39156;51.176;6.738;2022-08-25T00:28:50;24.70;39.60
53268;DHT22;39156;51.176;6.738;2022-08-25T00:31:19;24.70;39.70
53268;DHT22;39156;51.176;6.738;2022-08-25T00:33:48;24.60;39.70
53268;DHT22;39156;51.176;6.738;2022-08-25T00:36:16;24.60;39.70
53268;DHT22;39156;51.176;6.738;2022-08-25T00:38:45;24.60;40.00
53268;DHT22;39156;51.176;6.738;2022-08-25T00:41:15;24.50;40.00
53268;DHT22;39156;51.176;6.738;2022-08-25T00:43:49;24.50;40.10
53268;DHT22;39156;51.176;6.738;2022-08-25T00:46:29;24.50;40.40
53268;DHT22;39156;51.176;6.738;2022-08-25T00:49:17;24.50;40.50
53268;DHT22;39156;51.176;6.738;2022-08-25T00:52:08;24.40;40.60
53268;DHT22;39156;51.176;6.738;2022-08-25T00:54:58;24.40;41.00
53268;DHT22;39156;51.176;6.738;2022-08-25T00:57:30;24.30;41.20
53268;DHT22;39156;51.176;6.738;2022-08-25T00:59:59;24.30;41.30
53268;DHT22;39156;51.176;6.738;2022-08-25T01:02:25;24.20;41.20
53268;DHT22;39156;51.176;6.738;2022-08-25T01:04:51;24.20;40.60
53268;DHT22;39156;51.176;6.738;2022-08-25T01:07:18;24.10;41.10
53268;DHT22;39156;51.176;6.738;2022-08-25T01:09:47;24.10;41.40
53268;DHT22;39156;51.176;6.738;2022-08-25T01:12:14;24.00;41.40
53268;DHT22;39156;51.176;6.738;2022-08-25T01:14:41;23.90;41.30
53268;DHT22;39156;51.176;6.738;2022-08-25T01:17:11;23.90;41.60
53268;DHT22;39156;51.176;6.738;2022-08-25T01:19:37;23.90;41.80
53268;DHT22;39156;51.176;6.738;2022-08-25T01:22:03;23.90;41.20
53268;DHT22;39156;51.176;6.738;2022-08-25T01:24:44;23.80;41.60
53268;DHT22;39156;51.176;6.738;2022-08-25T01:27:12;23.70;42.30
53268;DHT22;39156;51.176;6.738;2022-08-25T01:29:38;23.70;42.20
53268;DHT22;39156;51.176;6.738;2022-08-25T01:32:07;23.70;42.40
53268;DHT22;39156;51.176;6.738;2022-08-25T01:34:37;23.60;42.50
53268;DHT22;39156;51.176;6.738;2022-08-25T01:37:06;23.60;42.50
53268;DHT22;39156;51.176;6.738;2022-08-25T01:39:33;23.60;42.70
53268;DHT22;39156;51.176;6.738;2022-08-25T01:42:08;23.50;42.70
53268;DHT22;39156;51.176;6.738;2022-08-25T01:44:42;23.50;42.80
53268;DHT22;39156;51.176;6.738;2022-08-25T01:47:10;23.50;43.00
53268;DHT22;39156;51.176;6.738;2022-08-25T01:49:36;23.40;43.00
53268;DHT22;39156;51.176;6.738;2022-08-25T01:53:03;23.40;42.90
53268;DHT22;39156;51.176;6.738;2022-08-25T01:55:28;23.40;42.60
53268;DHT22;39156;51.176;6.738;2022-08-25T01:57:54;23.30;42.70
53268;DHT22;39156;51.176;6.738;2022-08-25T02:00:20;23.30;42.20
53268;DHT22;39156;51.176;6.738;2022-08-25T02:05:15;23.20;42.70
53268;DHT22;39156;51.176;6.738;2022-08-25T02:07:42;23.20;42.90
53268;DHT22;39156;51.176;6.738;2022-08-25T02:10:11;23.20;42.90
53268;DHT22;39156;51.176;6.738;2022-08-25T02:12:38;23.20;43.00
53268;DHT22;39156;51.176;6.738;2022-08-25T02:15:05;23.10;42.90
53268;DHT22;39156;51.176;6.738;2022-08-25T02:17:34;23.10;43.10
53268;DHT22;39156;51.176;6.738;2022-08-25T02:20:02;23.00;43.10
53268;DHT22;39156;51.176;6.738;2022-08-25T02:22:29;23.00;43.10
53268;DHT22;39156;51.176;6.738;2022-08-25T02:24:55;23.00;43.20
53268;DHT22;39156;51.176;6.738;2022-08-25T02:27:21;23.00;43.30
53268;DHT22;39156;51.176;6.738;2022-08-25T02:29:47;23.00;42.90
53268;DHT22;39156;51.176;6.738;2022-08-25T02:32:13;22.90;43.20
53268;DHT22;39156;51.176;6.738;2022-08-25T02:34:39;22.90;42.80
53268;DHT22;39156;51.176;6.738;2022-08-25T02:37:06;22.90;43.30
53268;DHT22;39156;51.176;6.738;2022-08-25T02:39:32;22.80;43.40
53268;DHT22;39156;51.176;6.738;2022-08-25T02:41:58;22.80;44.10
53268;DHT22;39156;51.176;6.738;2022-08-25T02:44:24;22.80;43.70
53268;DHT22;39156;51.176;6.738;2022-08-25T02:46:50;22.80;43.70
53268;DHT22;39156;51.176;6.738;2022-08-25T02:49:15;22.80;43.20
53268;DHT22;39156;51.176;6.738;2022-08-25T02:51:42;22.70;43.00
53268;DHT22;39156;51.176;6.738;2022-08-25T02:54:08;22.70;43.80
53268;DHT22;39156;51.176;6.738;2022-08-25T02:56:34;22.70;43.50
53268;DHT22;39156;51.176;6.738;2022-08-25T02:59:00;22.70;43.50
53268;DHT22;39156;51.176;6.738;2022-08-25T03:01:27;22.60;43.80
53268;DHT22;39156;51.176;6.738;2022-08-25T03:03:54;22.60;44.10
53268;DHT22;39156;51.176;6.738;2022-08-25T03:06:21;22.60;44.10
53268;DHT22;39156;51.176;6.738;2022-08-25T03:08:48;22.60;44.10
53268;DHT22;39156;51.176;6.738;2022-08-25T03:11:14;22.60;44.10
53268;DHT22;39156;51.176;6.738;2022-08-25T03:13:41;22.50;44.20
53268;DHT22;39156;51.176;6.738;2022-08-25T03:16:08;22.50;44.20
53268;DHT22;39156;51.176;6.738;2022-08-25T03:18:35;22.50;44.30
53268;DHT22;39156;51.176;6.738;2022-08-25T03:21:01;22.40;44.50
53268;DHT22;39156;51.176;6.738;2022-08-25T03:23:27;22.50;43.90
53268;DHT22;39156;51.176;6.738;2022-08-25T03:25:54;22.40;44.20
53268;DHT22;39156;51.176;6.738;2022-08-25T03:28:39;22.30;44.30
53268;DHT22;39156;51.176;6.738;2022-08-25T03:31:06;22.30;45.10
53268;DHT22;39156;51.176;6.738;2022-08-25T03:33:32;22.30;44.60
53268;DHT22;39156;51.176;6.738;2022-08-25T03:35:58;22.20;44.60
53268;DHT22;39156;51.176;6.738;2022-08-25T03:38:25;22.20;44.80
53268;DHT22;39156;51.176;6.738;2022-08-25T03:40:51;22.20;44.90
53268;DHT22;39156;51.176;6.738;2022-08-25T03:43:17;22.20;44.90
53268;DHT22;39156;51.176;6.738;2022-08-25T03:45:45;22.10;44.90
53268;DHT22;39156;51.176;6.738;2022-08-25T03:48:12;22.10;45.00
53268;DHT22;39156;51.176;6.738;2022-08-25T03:50:46;22.10;45.20
53268;DHT22;39156;51.176;6.738;2022-08-25T03:53:12;22.10;44.50
53268;DHT22;39156;51.176;6.738;2022-08-25T03:55:39;22.00;45.00
53268;DHT22;39156;51.176;6.738;2022-08-25T03:58:05;22.00;45.00
53268;DHT22;39156;51.176;6.738;2022-08-25T04:00:31;21.90;45.20
53268;DHT22;39156;51.176;6.738;2022-08-25T04:02:56;21.90;45.20
53268;DHT22;39156;51.176;6.738;2022-08-25T04:05:22;21.90;45.60
53268;DHT22;39156;51.176;6.738;2022-08-25T04:07:48;21.90;45.60
53268;DHT22;39156;51.176;6.738;2022-08-25T04:10:14;21.90;45.70
53268;DHT22;39156;51.176;6.738;2022-08-25T04:12:39;21.90;45.60
53268;DHT22;39156;51.176;6.738;2022-08-25T04:15:07;21.80;45.30
53268;DHT22;39156;51.176;6.738;2022-08-25T04:17:37;21.80;45.40
53268;DHT22;39156;51.176;6.738;2022-08-25T04:20:04;21.80;45.50
53268;DHT22;39156;51.176;6.738;2022-08-25T04:22:32;21.80;46.10
53268;DHT22;39156;51.176;6.738;2022-08-25T04:24:58;21.70;46.10
53268;DHT22;39156;51.176;6.738;2022-08-25T04:27:24;21.70;46.40
53268;DHT22;39156;51.176;6.738;2022-08-25T04:29:49;21.70;46.40
53268;DHT22;39156;51.176;6.738;2022-08-25T04:32:15;21.70;46.40
53268;DHT22;39156;51.176;6.738;2022-08-25T04:34:41;21.60;46.20
53268;DHT22;39156;51.176;6.738;2022-08-25T04:37:08;21.70;46.60
53268;DHT22;39156;51.176;6.738;2022-08-25T04:39:34;21.60;46.50
53268;DHT22;39156;51.176;6.738;2022-08-25T04:42:00;21.60;46.50
53268;DHT22;39156;51.176;6.738;2022-08-25T04:44:27;21.60;46.70
53268;DHT22;39156;51.176;6.738;2022-08-25T04:46:54;21.60;46.80
53268;DHT22;39156;51.176;6.738;2022-08-25T04:49:19;21.60;46.80
53268;DHT22;39156;51.176;6.738;2022-08-25T04:51:45;21.60;46.80
53268;DHT22;39156;51.176;6.738;2022-08-25T04:54:13;21.50;46.90
53268;DHT22;39156;51.176;6.738;2022-08-25T04:56:46;21.50;46.90
53268;DHT22;39156;51.176;6.738;2022-08-25T04:59:13;21.50;46.90
53268;DHT22;39156;51.176;6.738;2022-08-25T05:01:39;21.50;46.20
53268;DHT22;39156;51.176;6.738;2022-08-25T05:04:08;21.50;46.70
53268;DHT22;39156;51.176;6.738;2022-08-25T05:06:36;21.60;47.10
53268;DHT22;39156;51.176;6.738;2022-08-25T05:09:02;21.50;47.10
53268;DHT22;39156;51.176;6.738;2022-08-25T05:11:29;21.60;47.10
53268;DHT22;39156;51.176;6.738;2022-08-25T05:13:56;21.60;47.00
53268;DHT22;39156;51.176;6.738;2022-08-25T05:16:23;21.60;47.20
53268;DHT22;39156;51.176;6.738;2022-08-25T05:18:50;21.70;46.70
53268;DHT22;39156;51.176;6.738;2022-08-25T05:21:19;21.80;47.70
53268;DHT22;39156;51.176;6.738;2022-08-25T05:23:46;22.10;47.60
53268;DHT22;39156;51.176;6.738;2022-08-25T05:26:18;22.20;47.30
53268;DHT22;39156;51.176;6.738;2022-08-25T05:28:45;22.40;46.70
53268;DHT22;39156;51.176;6.738;2022-08-25T05:31:14;22.50;46.50
53268;DHT22;39156;51.176;6.738;2022-08-25T05:33:40;22.60;46.40
53268;DHT22;39156;51.176;6.738;2022-08-25T05:36:09;22.70;46.40
53268;DHT22;39156;51.176;6.738;2022-08-25T05:38:36;22.70;46.30
53268;DHT22;39156;51.176;6.738;2022-08-25T05:41:05;22.80;46.30
53268;DHT22;39156;51.176;6.738;2022-08-25T05:43:36;22.80;46.30
53268;DHT22;39156;51.176;6.738;2022-08-25T05:46:02;22.80;46.20
53268;DHT22;39156;51.176;6.738;2022-08-25T05:48:28;22.80;46.20
53268;DHT22;39156;51.176;6.738;2022-08-25T05:50:59;22.90;46.30
53268;DHT22;39156;51.176;6.738;2022-08-25T05:53:27;22.90;46.30
53268;DHT22;39156;51.176;6.738;2022-08-25T05:55:55;22.90;46.30
53268;DHT22;39156;51.176;6.738;2022-08-25T05:58:22;22.90;46.40
53268;DHT22;39156;51.176;6.738;2022-08-25T06:00:50;22.90;46.40
53268;DHT22;39156;51.176;6.738;2022-08-25T06:03:16;22.90;46.50
53268;DHT22;39156;51.176;6.738;2022-08-25T06:05:42;22.90;46.60
53268;DHT22;39156;51.176;6.738;2022-08-25T06:08:08;22.90;46.60
53268;DHT22;39156;51.176;6.738;2022-08-25T06:10:34;22.90;46.70
53268;DHT22;39156;51.176;6.738;2022-08-25T06:13:00;22.90;46.60
53268;DHT22;39156;51.176;6.738;2022-08-25T06:15:26;22.90;46.70
53268;DHT22;39156;51.176;6.738;2022-08-25T06:17:53;22.90;46.70
53268;DHT22;39156;51.176;6.738;2022-08-25T06:20:23;22.90;46.80
53268;DHT22;39156;51.176;6.738;2022-08-25T06:22:50;23.00;46.80
53268;DHT22;39156;51.176;6.738;2022-08-25T06:25:19;23.00;46.80
53268;DHT22;39156;51.176;6.738;2022-08-25T06:27:46;23.00;46.80
53268;DHT22;39156;51.176;6.738;2022-08-25T06:30:14;23.10;46.80
53268;DHT22;39156;51.176;6.738;2022-08-25T06:32:42;23.10;46.80
53268;DHT22;39156;51.176;6.738;2022-08-25T06:35:11;23.20;46.80
53268;DHT22;39156;51.176;6.738;2022-08-25T06:37:40;23.20;46.90
53268;DHT22;39156;51.176;6.738;2022-08-25T06:40:08;23.30;46.90
53268;DHT22;39156;51.176;6.738;2022-08-25T06:42:35;23.30;47.00
53268;DHT22;39156;51.176;6.738;2022-08-25T06:45:02;23.50;47.60
53268;DHT22;39156;51.176;6.738;2022-08-25T06:47:28;23.80;48.00
53268;DHT22;39156;51.176;6.738;2022-08-25T06:49:54;24.30;48.10
53268;DHT22;39156;51.176;6.738;2022-08-25T06:52:19;24.90;48.00
53268;DHT22;39156;51.176;6.738;2022-08-25T06:54:45;25.50;46.70
53268;DHT22;39156;51.176;6.738;2022-08-25T06:57:11;26.10;46.90
53268;DHT22;39156;51.176;6.738;2022-08-25T06:59:37;26.70;46.00
53268;DHT22;39156;51.176;6.738;2022-08-25T07:02:04;27.40;45.50
53268;DHT22;39156;51.176;6.738;2022-08-25T07:04:31;28.00;44.40
53268;DHT22;39156;51.176;6.738;2022-08-25T07:06:57;28.70;43.60
53268;DHT22;39156;51.176;6.738;2022-08-25T07:09:23;29.40;42.60
53268;DHT22;39156;51.176;6.738;2022-08-25T07:11:49;29.90;41.70
53268;DHT22;39156;51.176;6.738;2022-08-25T07:14:16;30.50;40.80
53268;DHT22;39156;51.176;6.738;2022-08-25T07:16:43;31.00;39.70
53268;DHT22;39156;51.176;6.738;2022-08-25T07:19:09;31.60;39.20
53268;DHT22;39156;51.176;6.738;2022-08-25T07:21:38;32.00;38.80
53268;DHT22;39156;51.176;6.738;2022-08-25T07:24:09;32.40;37.80
53268;DHT22;39156;51.176;6.738;2022-08-25T07:26:37;32.90;37.50
53268;DHT22;39156;51.176;6.738;2022-08-25T07:29:08;33.30;37.00
53268;DHT22;39156;51.176;6.738;2022-08-25T07:31:39;33.70;36.60
53268;DHT22;39156;51.176;6.738;2022-08-25T07:34:06;34.10;36.20
53268;DHT22;39156;51.176;6.738;2022-08-25T07:36:50;34.50;35.70
53268;DHT22;39156;51.176;6.738;2022-08-25T07:39:16;34.90;35.20
53268;DHT22;39156;51.176;6.738;2022-08-25T07:41:42;35.10;34.70
53268;DHT22;39156;51.176;6.738;2022-08-25T07:44:10;35.40;34.50
53268;DHT22;39156;51.176;6.738;2022-08-25T07:46:37;35.60;33.90
53268;DHT22;39156;51.176;6.738;2022-08-25T07:49:04;35.80;33.50
53268;DHT22;39156;51.176;6.738;2022-08-25T07:51:30;36.00;33.30
53268;DHT22;39156;51.176;6.738;2022-08-25T07:53:56;36.10;32.80
53268;DHT22;39156;51.176;6.738;2022-08-25T07:56:22;36.20;32.80
53268;DHT22;39156;51.176;6.738;2022-08-25T07:58:47;36.20;32.60
53268;DHT22;39156;51.176;6.738;2022-08-25T08:01:15;36.20;32.40
53268;DHT22;39156;51.176;6.738;2022-08-25T08:03:42;36.20;32.20
53268;DHT22;39156;51.176;6.738;2022-08-25T08:06:11;36.40;32.20
53268;DHT22;39156;51.176;6.738;2022-08-25T08:08:39;36.40;31.80
53268;DHT22;39156;51.176;6.738;2022-08-25T08:11:17;36.40;31.50
53268;DHT22;39156;51.176;6.738;2022-08-25T08:13:46;36.40;31.30
53268;DHT22;39156;51.176;6.738;2022-08-25T08:16:13;36.40;31.30
53268;DHT22;39156;51.176;6.738;2022-08-25T08:18:41;36.40;31.60
53268;DHT22;39156;51.176;6.738;2022-08-25T08:21:27;36.40;31.60
53268;DHT22;39156;51.176;6.738;2022-08-25T08:23:53;36.50;31.80
53268;DHT22;39156;51.176;6.738;2022-08-25T08:26:20;36.60;32.10
53268;DHT22;39156;51.176;6.738;2022-08-25T08:28:46;36.60;31.50
53268;DHT22;39156;51.176;6.738;2022-08-25T08:31:13;36.70;31.20
53268;DHT22;39156;51.176;6.738;2022-08-25T08:33:40;36.70;31.00
53268;DHT22;39156;51.176;6.738;2022-08-25T08:36:08;36.60;31.20
53268;DHT22;39156;51.176;6.738;2022-08-25T08:38:37;36.60;31.30
53268;DHT22;39156;51.176;6.738;2022-08-25T08:44:41;36.90;31.50
53268;DHT22;39156;51.176;6.738;2022-08-25T08:55:54;37.60;31.40
53268;DHT22;39156;51.176;6.738;2022-08-25T09:01:15;37.60;30.60
53268;DHT22;39156;51.176;6.738;2022-08-25T09:03:53;37.50;30.60
53268;DHT22;39156;51.176;6.738;2022-08-25T09:06:30;37.50;30.70
53268;DHT22;39156;51.176;6.738;2022-08-25T09:09:03;37.60;30.50
53268;DHT22;39156;51.176;6.738;2022-08-25T09:17:51;37.60;30.40
53268;DHT22;39156;51.176;6.738;2022-08-25T09:23:26;37.50;30.40
53268;DHT22;39156;51.176;6.738;2022-08-25T09:28:49;37.30;30.40
53268;DHT22;39156;51.176;6.738;2022-08-25T09:31:31;37.20;30.60
53268;DHT22;39156;51.176;6.738;2022-08-25T09:34:01;37.10;30.50
53268;DHT22;39156;51.176;6.738;2022-08-25T09:36:29;37.10;30.70
53268;DHT22;39156;51.176;6.738;2022-08-25T09:38:55;36.90;30.70
53268;DHT22;39156;51.176;6.738;2022-08-25T09:41:41;37.00;30.90
53268;DHT22;39156;51.176;6.738;2022-08-25T09:44:17;37.00;31.20
53268;DHT22;39156;51.176;6.738;2022-08-25T09:46:59;37.20;30.80
53268;DHT22;39156;51.176;6.738;2022-08-25T09:49:41;37.30;30.80
53268;DHT22;39156;51.176;6.738;2022-08-25T09:54:51;37.50;30.80
53268;DHT22;39156;51.176;6.738;2022-08-25T10:03:05;37.40;30.50
53268;DHT22;39156;51.176;6.738;2022-08-25T10:05:34;37.30;30.60
53268;DHT22;39156;51.176;6.738;2022-08-25T10:08:34;37.30;30.80
53268;DHT22;39156;51.176;6.738;2022-08-25T10:11:08;37.30;30.50
53268;DHT22;39156;51.176;6.738;2022-08-25T10:13:39;37.30;30.70
53268;DHT22;39156;51.176;6.738;2022-08-25T10:16:25;37.50;31.10
53268;DHT22;39156;51.176;6.738;2022-08-25T10:19:24;37.60;30.80
53268;DHT22;39156;51.176;6.738;2022-08-25T10:22:22;37.80;31.00
53268;DHT22;39156;51.176;6.738;2022-08-25T10:24:51;37.90;30.60
53268;DHT22;39156;51.176;6.738;2022-08-25T10:36:19;37.60;29.60
53268;DHT22;39156;51.176;6.738;2022-08-25T10:38:56;37.30;29.70
53268;DHT22;39156;51.176;6.738;2022-08-25T10:50:26;36.40;30.30
53268;DHT22;39156;51.176;6.738;2022-08-25T10:53:09;36.20;30.30
53268;DHT22;39156;51.176;6.738;2022-08-25T10:55:59;35.90;30.50
53268;DHT22;39156;51.176;6.738;2022-08-25T11:04:23;35.40;30.60
53268;DHT22;39156;51.176;6.738;2022-08-25T11:07:02;35.30;30.80
53268;DHT22;39156;51.176;6.738;2022-08-25T11:09:39;35.20;31.00
53268;DHT22;39156;51.176;6.738;2022-08-25T11:12:10;35.10;30.60
53268;DHT22;39156;51.176;6.738;2022-08-25T11:14:46;35.00;30.60
53268;DHT22;39156;51.176;6.738;2022-08-25T11:17:27;34.90;30.70
53268;DHT22;39156;51.176;6.738;2022-08-25T11:20:07;34.80;30.70
53268;DHT22;39156;51.176;6.738;2022-08-25T11:22:41;34.70;30.20
53268;DHT22;39156;51.176;6.738;2022-08-25T11:25:27;34.60;30.50
53268;DHT22;39156;51.176;6.738;2022-08-25T11:28:29;34.30;30.90
53268;DHT22;39156;51.176;6.738;2022-08-25T11:30:58;34.10;30.60
53268;DHT22;39156;51.176;6.738;2022-08-25T11:33:29;34.00;30.80
53268;DHT22;39156;51.176;6.738;2022-08-25T11:35:59;33.90;31.00
53268;DHT22;39156;51.176;6.738;2022-08-25T11:44:31;33.80;30.60
53268;DHT22;39156;51.176;6.738;2022-08-25T11:47:30;33.70;30.70
53268;DHT22;39156;51.176;6.738;2022-08-25T11:50:32;33.70;31.10
53268;DHT22;39156;51.176;6.738;2022-08-25T11:53:23;33.60;31.00
53268;DHT22;39156;51.176;6.738;2022-08-25T11:55:52;33.50;30.70
53268;DHT22;39156;51.176;6.738;2022-08-25T11:58:30;33.40;30.80
53268;DHT22;39156;51.176;6.738;2022-08-25T12:01:00;33.30;30.80
53268;DHT22;39156;51.176;6.738;2022-08-25T12:11:44;33.20;30.60
53268;DHT22;39156;51.176;6.738;2022-08-25T12:22:01;33.30;29.90
53268;DHT22;39156;51.176;6.738;2022-08-25T12:29:45;33.30;29.70
53268;DHT22;39156;51.176;6.738;2022-08-25T12:38:17;33.40;30.40
53268;DHT22;39156;51.176;6.738;2022-08-25T12:41:00;33.50;30.00
53268;DHT22;39156;51.176;6.738;2022-08-25T12:43:41;33.60;29.70
53268;DHT22;39156;51.176;6.738;2022-08-25T12:49:01;33.60;29.70
53268;DHT22;39156;51.176;6.738;2022-08-25T12:51:52;33.70;29.80
53268;DHT22;39156;51.176;6.738;2022-08-25T12:57:37;33.70;30.50
53268;DHT22;39156;51.176;6.738;2022-08-25T13:06:02;33.60;30.70
53268;DHT22;39156;51.176;6.738;2022-08-25T13:09:04;33.60;30.20
53268;DHT22;39156;51.176;6.738;2022-08-25T13:11:46;33.50;30.20
53268;DHT22;39156;51.176;6.738;2022-08-25T13:14:21;33.40;30.00
53268;DHT22;39156;51.176;6.738;2022-08-25T13:16:56;33.40;30.00
53268;DHT22;39156;51.176;6.738;2022-08-25T13:19:23;33.30;30.00
53268;DHT22;39156;51.176;6.738;2022-08-25T13:21:50;33.30;30.00
53268;DHT22;39156;51.176;6.738;2022-08-25T13:24:25;33.20;30.00
53268;DHT22;39156;51.176;6.738;2022-08-25T13:26:59;33.20;30.20
53268;DHT22;39156;51.176;6.738;2022-08-25T13:29:35;33.20;30.40
53268;DHT22;39156;51.176;6.738;2022-08-25T13:32:13;33.20;30.30
53268;DHT22;39156;51.176;6.738;2022-08-25T13:34:42;33.20;30.50
53268;DHT22;39156;51.176;6.738;2022-08-25T13:37:17;33.10;30.40
53268;DHT22;39156;51.176;6.738;2022-08-25T13:42:47;33.20;30.50
53268;DHT22;39156;51.176;6.738;2022-08-25T13:45:18;33.30;30.60
53268;DHT22;39156;51.176;6.738;2022-08-25T13:47:49;33.30;30.70
53268;DHT22;39156;51.176;6.738;2022-08-25T13:50:20;33.30;30.90
53268;DHT22;39156;51.176;6.738;2022-08-25T13:53:12;33.30;30.90
53268;DHT22;39156;51.176;6.738;2022-08-25T13:55:52;33.30;30.90
53268;DHT22;39156;51.176;6.738;2022-08-25T13:58:22;33.30;30.60
53268;DHT22;39156;51.176;6.738;2022-08-25T14:01:28;33.30;30.60
53268;DHT22;39156;51.176;6.738;2022-08-25T14:04:26;33.30;30.60
53268;DHT22;39156;51.176;6.738;2022-08-25T14:10:06;33.40;30.60
53268;DHT22;39156;51.176;6.738;2022-08-25T14:12:37;33.50;30.20
53268;DHT22;39156;51.176;6.738;2022-08-25T14:17:47;33.60;30.70
53268;DHT22;39156;51.176;6.738;2022-08-25T14:20:26;33.60;30.70
53268;DHT22;39156;51.176;6.738;2022-08-25T14:22:57;33.60;30.60
53268;DHT22;39156;51.176;6.738;2022-08-25T14:25:29;33.60;30.30
53268;DHT22;39156;51.176;6.738;2022-08-25T14:28:01;33.60;30.10
53268;DHT22;39156;51.176;6.738;2022-08-25T14:30:30;33.70;30.00
53268;DHT22;39156;51.176;6.738;2022-08-25T14:32:59;33.70;30.00
53268;DHT22;39156;51.176;6.738;2022-08-25T14:35:26;33.70;29.90
53268;DHT22;39156;51.176;6.738;2022-08-25T14:37:53;33.70;30.00
53268;DHT22;39156;51.176;6.738;2022-08-25T14:40:31;33.70;30.00
53268;DHT22;39156;51.176;6.738;2022-08-25T14:43:02;33.70;30.00
53268;DHT22;39156;51.176;6.738;2022-08-25T14:45:29;33.60;30.00
53268;DHT22;39156;51.176;6.738;2022-08-25T14:47:59;33.60;30.00
53268;DHT22;39156;51.176;6.738;2022-08-25T14:50:29;33.60;30.00
53268;DHT22;39156;51.176;6.738;2022-08-25T14:52:54;33.60;30.10
53268;DHT22;39156;51.176;6.738;2022-08-25T14:55:20;33.60;30.10
53268;DHT22;39156;51.176;6.738;2022-08-25T14:57:46;33.60;30.10
53268;DHT22;39156;51.176;6.738;2022-08-25T15:00:12;33.60;30.10
53268;DHT22;39156;51.176;6.738;2022-08-25T15:02:41;33.60;30.10
53268;DHT22;39156;51.176;6.738;2022-08-25T15:05:08;33.60;30.20
53268;DHT22;39156;51.176;6.738;2022-08-25T15:07:37;33.50;30.30
53268;DHT22;39156;51.176;6.738;2022-08-25T15:10:21;33.50;30.30
53268;DHT22;39156;51.176;6.738;2022-08-25T15:12:48;33.50;30.30
53268;DHT22;39156;51.176;6.738;2022-08-25T15:15:15;33.50;30.20
53268;DHT22;39156;51.176;6.738;2022-08-25T15:17:43;33.40;29.80
53268;DHT22;39156;51.176;6.738;2022-08-25T15:20:10;33.40;30.00
53268;DHT22;39156;51.176;6.738;2022-08-25T15:22:35;33.40;30.00
53268;DHT22;39156;51.176;6.738;2022-08-25T15:25:01;33.40;30.00
53268;DHT22;39156;51.176;6.738;2022-08-25T15:27:27;33.40;29.90
53268;DHT22;39156;51.176;6.738;2022-08-25T15:29:52;33.40;29.80
53268;DHT22;39156;51.176;6.738;2022-08-25T15:32:18;33.40;29.80
53268;DHT22;39156;51.176;6.738;2022-08-25T15:34:44;33.40;29.80
53268;DHT22;39156;51.176;6.738;2022-08-25T15:37:12;33.40;29.90
53268;DHT22;39156;51.176;6.738;2022-08-25T15:39:41;33.30;29.90
53268;DHT22;39156;51.176;6.738;2022-08-25T15:42:08;33.30;29.90
53268;DHT22;39156;51.176;6.738;2022-08-25T15:44:37;33.30;29.90
53268;DHT22;39156;51.176;6.738;2022-08-25T15:47:03;33.20;29.90
53268;DHT22;39156;51.176;6.738;2022-08-25T15:49:29;33.20;29.90
53268;DHT22;39156;51.176;6.738;2022-08-25T15:51:55;33.20;29.80
53268;DHT22;39156;51.176;6.738;2022-08-25T15:54:22;33.10;29.60
53268;DHT22;39156;51.176;6.738;2022-08-25T15:56:48;33.00;29.80
53268;DHT22;39156;51.176;6.738;2022-08-25T15:59:14;33.00;30.00
53268;DHT22;39156;51.176;6.738;2022-08-25T16:01:40;32.90;29.70
53268;DHT22;39156;51.176;6.738;2022-08-25T16:04:08;32.90;29.80
53268;DHT22;39156;51.176;6.738;2022-08-25T16:06:34;32.80;29.90
53268;DHT22;39156;51.176;6.738;2022-08-25T16:09:01;32.80;29.90
53268;DHT22;39156;51.176;6.738;2022-08-25T16:11:28;32.80;29.90
53268;DHT22;39156;51.176;6.738;2022-08-25T16:13:55;32.70;29.70
53268;DHT22;39156;51.176;6.738;2022-08-25T16:16:24;32.70;29.60
53268;DHT22;39156;51.176;6.738;2022-08-25T16:18:51;32.70;29.60
53268;DHT22;39156;51.176;6.738;2022-08-25T16:21:20;32.70;29.70
53268;DHT22;39156;51.176;6.738;2022-08-25T16:23:56;32.70;29.60
53268;DHT22;39156;51.176;6.738;2022-08-25T16:26:25;32.70;29.80
53268;DHT22;39156;51.176;6.738;2022-08-25T16:28:52;32.70;29.80
53268;DHT22;39156;51.176;6.738;2022-08-25T16:31:18;32.70;29.70
53268;DHT22;39156;51.176;6.738;2022-08-25T16:33:44;32.70;29.60
53268;DHT22;39156;51.176;6.738;2022-08-25T16:36:20;32.70;29.70
53268;DHT22;39156;51.176;6.738;2022-08-25T16:38:48;32.70;29.70
53268;DHT22;39156;51.176;6.738;2022-08-25T16:41:17;32.70;29.80
53268;DHT22;39156;51.176;6.738;2022-08-25T16:43:48;32.70;30.20
53268;DHT22;39156;51.176;6.738;2022-08-25T16:46:17;32.70;29.70
53268;DHT22;39156;51.176;6.738;2022-08-25T16:48:43;32.70;29.70
53268;DHT22;39156;51.176;6.738;2022-08-25T16:51:12;32.70;29.70
53268;DHT22;39156;51.176;6.738;2022-08-25T16:53:39;32.80;29.70
53268;DHT22;39156;51.176;6.738;2022-08-25T16:56:24;32.80;29.80
53268;DHT22;39156;51.176;6.738;2022-08-25T16:58:53;32.90;29.70
53268;DHT22;39156;51.176;6.738;2022-08-25T17:01:20;33.00;29.80
53268;DHT22;39156;51.176;6.738;2022-08-25T17:03:47;33.00;29.70
53268;DHT22;39156;51.176;6.738;2022-08-25T17:06:15;33.10;29.50
53268;DHT22;39156;51.176;6.738;2022-08-25T17:08:41;33.00;29.50
53268;DHT22;39156;51.176;6.738;2022-08-25T17:11:08;33.00;29.60
53268;DHT22;39156;51.176;6.738;2022-08-25T17:13:41;33.00;29.50
53268;DHT22;39156;51.176;6.738;2022-08-25T17:16:09;33.00;29.40
53268;DHT22;39156;51.176;6.738;2022-08-25T17:18:35;32.90;29.70
53268;DHT22;39156;51.176;6.738;2022-08-25T17:21:19;32.90;30.40
53268;DHT22;39156;51.176;6.738;2022-08-25T17:23:46;32.80;30.00
53268;DHT22;39156;51.176;6.738;2022-08-25T17:26:14;32.80;30.00
53268;DHT22;39156;51.176;6.738;2022-08-25T17:28:42;32.70;30.00
53268;DHT22;39156;51.176;6.738;2022-08-25T17:31:09;32.70;30.00
53268;DHT22;39156;51.176;6.738;2022-08-25T17:33:36;32.70;29.90
53268;DHT22;39156;51.176;6.738;2022-08-25T17:36:02;32.70;30.20
53268;DHT22;39156;51.176;6.738;2022-08-25T17:38:29;32.50;30.30
53268;DHT22;39156;51.176;6.738;2022-08-25T17:40:57;32.50;30.60
53268;DHT22;39156;51.176;6.738;2022-08-25T17:43:25;32.50;30.30
53268;DHT22;39156;51.176;6.738;2022-08-25T17:45:53;32.30;30.00